sensor_id;sensor_type;location;lat;lon;timestamp;pressure;altitude;pressure_sealevel;temperature;humidity
66664;BME280;59683;51.428;-1.994;2023-01-26T00:00:13;102197.97;;;1.09;100.00
66664;BME280;59683;51.428;-1.994;2023-01-26T00:18:10;102194.97;;;0.77;100.00
66664;BME280;59683;51.428;-1.994;2023-01-26T00:20:36;102205.25;;;0.87;100.00
66664;BME280;59683;51.428;-1.994;2023-01-26T00:23:05;102187.28;;;0.66;100.00
66664;BME280;59683;51.428;-1.994;2023-01-26T00:25:31;102196.19;;;0.50;100.00
66664;BME280;59683;51.428;-1.994;2023-01-26T00:27:57;102199.84;;;0.33;100.00
66664;BME280;59683;51.428;-1.994;2023-01-26T01:24:43;102209.53;;;0.90;100.00
66664;BME280;59683;51.428;-1.994;2023-01-26T01:27:09;102216.47;;;0.92;100.00
66664;BME280;59683;51.428;-1.994;2023-01-26T01:29:34;102204.38;;;0.87;100.00
66664;BME280;59683;51.428;-1.994;2023-01-26T01:32:00;102213.88;;;0.89;100.00
66664;BME280;59683;51.428;-1.994;2023-01-26T01:34:27;102207.94;;;0.78;100.00
66664;BME280;59683;51.428;-1.994;2023-01-26T01:36:55;102225.19;;;0.88;100.00
66664;BME280;59683;51.428;-1.994;2023-01-26T01:39:23;102220.84;;;0.90;100.00
66664;BME280;59683;51.428;-1.994;2023-01-26T01:52:20;102205.28;;;0.83;100.00
66664;BME280;59683;51.428;-1.994;2023-01-26T01:54:57;102204.41;;;0.84;100.00
66664;BME280;59683;51.428;-1.994;2023-01-26T02:13:09;102197.63;;;0.72;100.00
66664;BME280;59683;51.428;-1.994;2023-01-26T02:15:36;102223.38;;;0.93;100.00
66664;BME280;59683;51.428;-1.994;2023-01-26T02:18:03;102204.31;;;0.90;100.00
66664;BME280;59683;51.428;-1.994;2023-01-26T02:30:53;102232.66;;;1.14;100.00
66664;BME280;59683;51.428;-1.994;2023-01-26T02:33:28;102223.09;;;1.15;100.00
66664;BME280;59683;51.428;-1.994;2023-01-26T02:35:55;102214.41;;;1.14;100.00
66664;BME280;59683;51.428;-1.994;2023-01-26T02:38:22;102230.00;;;1.16;100.00
66664;BME280;59683;51.428;-1.994;2023-01-26T02:40:54;102238.78;;;1.12;100.00
66664;BME280;59683;51.428;-1.994;2023-01-26T02:48:35;102220.25;;;0.67;100.00
66664;BME280;59683;51.428;-1.994;2023-01-26T02:51:24;102210.66;;;0.72;100.00
66664;BME280;59683;51.428;-1.994;2023-01-26T02:53:50;102224.44;;;0.80;100.00
66664;BME280;59683;51.428;-1.994;2023-01-26T02:56:16;102228.09;;;0.68;100.00
66664;BME280;59683;51.428;-1.994;2023-01-26T03:06:28;102245.41;;;0.72;100.00
66664;BME280;59683;51.428;-1.994;2023-01-26T04:15:05;102262.97;;;-0.34;100.00
66664;BME280;59683;51.428;-1.994;2023-01-26T04:18:11;102253.53;;;-0.49;100.00
66664;BME280;59683;51.428;-1.994;2023-01-26T04:20:55;102260.53;;;-0.54;100.00
66664;BME280;59683;51.428;-1.994;2023-01-26T04:29:16;102255.59;;;-0.95;100.00
66664;BME280;59683;51.428;-1.994;2023-01-26T04:31:44;102252.19;;;-1.04;100.00
66664;BME280;59683;51.428;-1.994;2023-01-26T04:34:20;102248.75;;;-1.09;100.00
66664;BME280;59683;51.428;-1.994;2023-01-26T04:37:00;102272.97;;;-1.04;100.00
66664;BME280;59683;51.428;-1.994;2023-01-26T09:27:53;102404.84;;;1.08;100.00
66664;BME280;59683;51.428;-1.994;2023-01-26T09:30:19;102410.91;;;1.09;100.00
66664;BME280;59683;51.428;-1.994;2023-01-26T09:32:49;102402.22;;;1.11;100.00
66664;BME280;59683;51.428;-1.994;2023-01-26T09:35:17;102409.13;;;1.17;100.00
66664;BME280;59683;51.428;-1.994;2023-01-26T16:52:54;102325.59;;;4.62;100.00
66664;BME280;59683;51.428;-1.994;2023-01-26T16:55:20;102346.75;;;4.56;100.00
66664;BME280;59683;51.428;-1.994;2023-01-26T17:33:59;102375.44;;;4.28;100.00
66664;BME280;59683;51.428;-1.994;2023-01-26T17:36:24;102376.28;;;4.30;100.00
66664;BME280;59683;51.428;-1.994;2023-01-26T17:38:50;102375.41;;;4.30;100.00
66664;BME280;59683;51.428;-1.994;2023-01-26T17:41:16;102384.91;;;4.34;100.00
66664;BME280;59683;51.428;-1.994;2023-01-26T17:43:42;102385.63;;;4.41;100.00
66664;BME280;59683;51.428;-1.994;2023-01-26T17:46:11;102373.53;;;4.35;100.00
66664;BME280;59683;51.428;-1.994;2023-01-26T17:48:37;102402.16;;;4.44;100.00
66664;BME280;59683;51.428;-1.994;2023-01-26T17:51:14;102397.84;;;4.42;100.00
66664;BME280;59683;51.428;-1.994;2023-01-26T17:53:45;102392.72;;;4.35;100.00
66664;BME280;59683;51.428;-1.994;2023-01-26T17:56:13;102397.09;;;4.36;100.00
66664;BME280;59683;51.428;-1.994;2023-01-26T17:58:39;102408.31;;;4.42;100.00
66664;BME280;59683;51.428;-1.994;2023-01-26T18:01:06;102402.16;;;4.43;100.00
66664;BME280;59683;51.428;-1.994;2023-01-26T18:03:33;102422.16;;;4.47;100.00
66664;BME280;59683;51.428;-1.994;2023-01-26T18:05:58;102399.91;;;4.29;100.00
66664;BME280;59683;51.428;-1.994;2023-01-26T18:08:24;102417.09;;;4.41;100.00
66664;BME280;59683;51.428;-1.994;2023-01-26T18:10:58;102404.25;;;4.30;100.00
66664;BME280;59683;51.428;-1.994;2023-01-26T18:13:23;102405.09;;;4.30;100.00
66664;BME280;59683;51.428;-1.994;2023-01-26T18:15:49;102411.19;;;4.31;100.00
66664;BME280;59683;51.428;-1.994;2023-01-26T18:18:14;102402.53;;;4.29;100.00
66664;BME280;59683;51.428;-1.994;2023-01-26T18:20:39;102400.06;;;4.21;100.00
66664;BME280;59683;51.428;-1.994;2023-01-26T18:23:05;102399.25;;;4.19;100.00
66664;BME280;59683;51.428;-1.994;2023-01-26T18:25:32;102397.56;;;4.17;100.00
66664;BME280;59683;51.428;-1.994;2023-01-26T18:27:59;102409.81;;;4.16;100.00
66664;BME280;59683;51.428;-1.994;2023-01-26T18:30:24;102392.63;;;4.04;100.00
66664;BME280;59683;51.428;-1.994;2023-01-26T18:32:49;102410.75;;;4.13;100.00
66664;BME280;59683;51.428;-1.994;2023-01-26T18:35:15;102413.34;;;4.15;100.00
66664;BME280;59683;51.428;-1.994;2023-01-26T18:37:41;102407.44;;;4.07;100.00
66664;BME280;59683;51.428;-1.994;2023-01-26T18:40:07;102399.81;;;3.96;100.00
66664;BME280;59683;51.428;-1.994;2023-01-26T18:42:33;102426.63;;;4.07;100.00
66664;BME280;59683;51.428;-1.994;2023-01-26T18:44:58;102403.53;;;3.87;100.00
66664;BME280;59683;51.428;-1.994;2023-01-26T18:47:27;102435.53;;;4.00;100.00
66664;BME280;59683;51.428;-1.994;2023-01-26T18:49:53;102435.59;;;3.97;100.00
66664;BME280;59683;51.428;-1.994;2023-01-26T18:52:18;102432.97;;;3.97;100.00
66664;BME280;59683;51.428;-1.994;2023-01-26T18:54:44;102437.47;;;3.92;100.00
66664;BME280;59683;51.428;-1.994;2023-01-26T18:57:12;102439.13;;;3.96;100.00
66664;BME280;59683;51.428;-1.994;2023-01-26T18:59:38;102427.97;;;3.88;100.00
66664;BME280;59683;51.428;-1.994;2023-01-26T19:02:03;102440.16;;;3.89;100.00
66664;BME280;59683;51.428;-1.994;2023-01-26T19:04:29;102424.72;;;3.77;100.00
66664;BME280;59683;51.428;-1.994;2023-01-26T19:06:55;102423.03;;;3.74;100.00
66664;BME280;59683;51.428;-1.994;2023-01-26T19:09:20;102429.06;;;3.78;100.00
66664;BME280;59683;51.428;-1.994;2023-01-26T19:11:47;102411.69;;;3.72;100.00
66664;BME280;59683;51.428;-1.994;2023-01-26T19:14:12;102426.44;;;3.78;100.00
66664;BME280;59683;51.428;-1.994;2023-01-26T19:16:39;102432.59;;;3.75;100.00
66664;BME280;59683;51.428;-1.994;2023-01-26T19:19:06;102415.28;;;3.68;100.00
66664;BME280;59683;51.428;-1.994;2023-01-26T19:21:32;102430.13;;;3.68;100.00
66664;BME280;59683;51.428;-1.994;2023-01-26T19:23:57;102432.81;;;3.66;100.00
66664;BME280;59683;51.428;-1.994;2023-01-26T19:26:25;102417.28;;;3.57;100.00
66664;BME280;59683;51.428;-1.994;2023-01-26T19:28:52;102423.31;;;3.60;100.00
66664;BME280;59683;51.428;-1.994;2023-01-26T19:31:18;102417.22;;;3.60;100.00
66664;BME280;59683;51.428;-1.994;2023-01-26T19:33:54;102416.34;;;3.59;100.00
66664;BME280;59683;51.428;-1.994;2023-01-26T19:36:21;102408.66;;;3.52;100.00
66664;BME280;59683;51.428;-1.994;2023-01-26T19:38:47;102402.75;;;3.44;100.00
66664;BME280;59683;51.428;-1.994;2023-01-26T19:41:13;102413.06;;;3.51;100.00
66664;BME280;59683;51.428;-1.994;2023-01-26T19:43:39;102416.63;;;3.47;100.00
66664;BME280;59683;51.428;-1.994;2023-01-26T19:46:05;102393.34;;;3.33;100.00
66664;BME280;59683;51.428;-1.994;2023-01-26T19:48:32;102398.44;;;3.41;100.00
66664;BME280;59683;51.428;-1.994;2023-01-26T19:51:09;102416.63;;;3.47;100.00
66664;BME280;59683;51.428;-1.994;2023-01-26T19:53:37;102397.66;;;3.36;100.00
66664;BME280;59683;51.428;-1.994;2023-01-26T19:56:10;102412.44;;;3.38;100.00
66664;BME280;59683;51.428;-1.994;2023-01-26T19:58:36;102403.88;;;3.32;100.00
66664;BME280;59683;51.428;-1.994;2023-01-26T20:01:05;102411.66;;;3.35;100.00
66664;BME280;59683;51.428;-1.994;2023-01-26T20:03:30;102405.75;;;3.25;100.00
66664;BME280;59683;51.428;-1.994;2023-01-26T20:05:56;102415.28;;;3.28;100.00
66664;BME280;59683;51.428;-1.994;2023-01-26T20:08:23;102417.00;;;3.29;100.00
66664;BME280;59683;51.428;-1.994;2023-01-26T20:10:49;102397.16;;;3.19;100.00
66664;BME280;59683;51.428;-1.994;2023-01-26T20:13:14;102407.50;;;3.25;100.00
66664;BME280;59683;51.428;-1.994;2023-01-26T20:15:40;102411.81;;;3.27;100.00
66664;BME280;59683;51.428;-1.994;2023-01-26T20:18:06;102409.31;;;3.20;100.00
66664;BME280;59683;51.428;-1.994;2023-01-26T20:20:32;102406.75;;;3.18;100.00
66664;BME280;59683;51.428;-1.994;2023-01-26T20:22:58;102413.00;;;3.12;100.00
66664;BME280;59683;51.428;-1.994;2023-01-26T20:25:24;102389.69;;;2.99;100.00
66664;BME280;59683;51.428;-1.994;2023-01-26T20:27:50;102406.16;;;3.05;100.00
66664;BME280;59683;51.428;-1.994;2023-01-26T20:30:17;102416.63;;;3.05;100.00
66664;BME280;59683;51.428;-1.994;2023-01-26T20:32:43;102415.06;;;2.95;100.00
66664;BME280;59683;51.428;-1.994;2023-01-26T20:35:11;102426.41;;;2.94;100.00
66664;BME280;59683;51.428;-1.994;2023-01-26T20:37:37;102415.25;;;2.84;100.00
66664;BME280;59683;51.428;-1.994;2023-01-26T20:40:04;102414.31;;;2.88;100.00
66664;BME280;59683;51.428;-1.994;2023-01-26T20:42:30;102420.44;;;2.87;100.00
66664;BME280;59683;51.428;-1.994;2023-01-26T20:44:55;102427.31;;;2.91;100.00
66664;BME280;59683;51.428;-1.994;2023-01-26T20:47:26;102409.34;;;2.73;100.00
66664;BME280;59683;51.428;-1.994;2023-01-26T20:49:52;102406.00;;;2.66;100.00
66664;BME280;59683;51.428;-1.994;2023-01-26T20:52:21;102399.94;;;2.63;100.00
66664;BME280;59683;51.428;-1.994;2023-01-26T20:54:47;102428.38;;;2.81;100.00
66664;BME280;59683;51.428;-1.994;2023-01-26T20:57:12;102425.91;;;2.75;100.00
66664;BME280;59683;51.428;-1.994;2023-01-26T20:59:38;102437.97;;;2.81;100.00
66664;BME280;59683;51.428;-1.994;2023-01-26T21:02:03;102440.69;;;2.76;100.00
66664;BME280;59683;51.428;-1.994;2023-01-26T21:04:29;102428.56;;;2.71;100.00
66664;BME280;59683;51.428;-1.994;2023-01-26T21:06:56;102434.69;;;2.70;100.00
66664;BME280;59683;51.428;-1.994;2023-01-26T21:09:25;102433.69;;;2.77;100.00
66664;BME280;59683;51.428;-1.994;2023-01-26T21:11:50;102463.13;;;2.88;100.00
66664;BME280;59683;51.428;-1.994;2023-01-26T21:14:15;102448.41;;;2.84;100.00
66664;BME280;59683;51.428;-1.994;2023-01-26T21:16:41;102465.66;;;2.92;100.00
66664;BME280;59683;51.428;-1.994;2023-01-26T21:19:07;102451.84;;;2.86;100.00
66664;BME280;59683;51.428;-1.994;2023-01-26T21:21:32;102455.19;;;2.94;100.00
66664;BME280;59683;51.428;-1.994;2023-01-26T21:23:58;102431.84;;;2.83;100.00
66664;BME280;59683;51.428;-1.994;2023-01-26T21:26:24;102462.84;;;3.05;100.00
66664;BME280;59683;51.428;-1.994;2023-01-26T21:28:56;102461.09;;;3.05;100.00
66664;BME280;59683;51.428;-1.994;2023-01-26T21:31:24;102460.94;;;3.11;100.00
66664;BME280;59683;51.428;-1.994;2023-01-26T21:33:51;102435.97;;;2.95;100.00
66664;BME280;59683;51.428;-1.994;2023-01-26T21:36:19;102461.09;;;3.05;100.00
66664;BME280;59683;51.428;-1.994;2023-01-26T21:38:47;102449.06;;;2.95;100.00
66664;BME280;59683;51.428;-1.994;2023-01-26T21:41:18;102452.63;;;2.89;100.00
66664;BME280;59683;51.428;-1.994;2023-01-26T21:44:12;102459.56;;;2.94;100.00
66664;BME280;59683;51.428;-1.994;2023-01-26T21:46:38;102455.38;;;2.82;100.00
66664;BME280;59683;51.428;-1.994;2023-01-26T21:49:05;102453.72;;;2.79;100.00
66664;BME280;59683;51.428;-1.994;2023-01-26T21:51:31;102443.41;;;2.70;100.00
66664;BME280;59683;51.428;-1.994;2023-01-26T21:54:15;102446.97;;;2.66;100.00
66664;BME280;59683;51.428;-1.994;2023-01-26T21:56:41;102449.66;;;2.61;100.00
66664;BME280;59683;51.428;-1.994;2023-01-26T21:59:10;102439.34;;;2.54;100.00
66664;BME280;59683;51.428;-1.994;2023-01-26T22:01:41;102442.84;;;2.53;100.00
66664;BME280;59683;51.428;-1.994;2023-01-26T22:04:16;102460.03;;;2.66;100.00
66664;BME280;59683;51.428;-1.994;2023-01-26T22:06:42;102461.75;;;2.68;100.00
66664;BME280;59683;51.428;-1.994;2023-01-26T22:09:09;102459.91;;;2.74;100.00
66664;BME280;59683;51.428;-1.994;2023-01-26T22:11:35;102453.84;;;2.70;100.00
66664;BME280;59683;51.428;-1.994;2023-01-26T22:14:01;102458.13;;;2.74;100.00
66664;BME280;59683;51.428;-1.994;2023-01-26T22:16:28;102442.59;;;2.66;100.00
66664;BME280;59683;51.428;-1.994;2023-01-26T22:18:54;102465.84;;;2.83;100.00
66664;BME280;59683;51.428;-1.994;2023-01-26T22:21:20;102454.56;;;2.80;100.00
66664;BME280;59683;51.428;-1.994;2023-01-26T22:23:45;102445.06;;;2.74;100.00
66664;BME280;59683;51.428;-1.994;2023-01-26T22:26:18;102455.38;;;2.83;100.00
66664;BME280;59683;51.428;-1.994;2023-01-26T22:28:51;102462.28;;;2.87;100.00
66664;BME280;59683;51.428;-1.994;2023-01-26T22:31:19;102458.84;;;2.84;100.00
66664;BME280;59683;51.428;-1.994;2023-01-26T22:33:47;102447.63;;;2.79;100.00
66664;BME280;59683;51.428;-1.994;2023-01-26T22:36:12;102452.78;;;2.83;100.00
66664;BME280;59683;51.428;-1.994;2023-01-26T22:38:38;102458.00;;;2.82;100.00
66664;BME280;59683;51.428;-1.994;2023-01-26T22:41:05;102458.00;;;2.82;100.00
66664;BME280;59683;51.428;-1.994;2023-01-26T22:43:32;102441.63;;;2.72;100.00
66664;BME280;59683;51.428;-1.994;2023-01-26T22:46:06;102458.13;;;2.76;100.00
66664;BME280;59683;51.428;-1.994;2023-01-26T22:48:33;102446.06;;;2.67;100.00
66664;BME280;59683;51.428;-1.994;2023-01-26T22:51:11;102453.81;;;2.73;100.00
66664;BME280;59683;51.428;-1.994;2023-01-26T22:53:38;102471.94;;;2.84;100.00
66664;BME280;59683;51.428;-1.994;2023-01-26T22:56:04;102464.94;;;2.84;100.00
66664;BME280;59683;51.428;-1.994;2023-01-26T22:58:31;102444.94;;;2.82;100.00
66664;BME280;59683;51.428;-1.994;2023-01-26T23:03:33;102421.53;;;2.76;100.00
66664;BME280;59683;51.428;-1.994;2023-01-26T23:06:00;102439.56;;;2.89;100.00
66664;BME280;59683;51.428;-1.994;2023-01-26T23:08:27;102410.16;;;2.77;100.00
66664;BME280;59683;51.428;-1.994;2023-01-26T23:11:11;102428.13;;;2.95;100.00
66664;BME280;59683;51.428;-1.994;2023-01-26T23:13:37;102405.78;;;2.79;100.00
66664;BME280;59683;51.428;-1.994;2023-01-26T23:16:04;102416.25;;;2.79;100.00
66664;BME280;59683;51.428;-1.994;2023-01-26T23:18:30;102438.75;;;2.87;100.00
66664;BME280;59683;51.428;-1.994;2023-01-26T23:20:56;102438.63;;;2.94;100.00
66664;BME280;59683;51.428;-1.994;2023-01-26T23:23:23;102420.38;;;2.90;100.00
66664;BME280;59683;51.428;-1.994;2023-01-26T23:25:49;102433.88;;;3.14;100.00
66664;BME280;59683;51.428;-1.994;2023-01-26T23:28:16;102411.19;;;3.16;100.00
66664;BME280;59683;51.428;-1.994;2023-01-26T23:30:42;102411.28;;;3.08;100.00
66664;BME280;59683;51.428;-1.994;2023-01-26T23:33:07;102395.09;;;2.91;100.00
66664;BME280;59683;51.428;-1.994;2023-01-26T23:58:50;102381.06;;;1.96;100.00
